Strasburg, Colorado
Current Conditions -  °F | °C
As of 10:52 AM on Thursday 18 Dec 2014 (Local Time) from KFTG Reporting Station
Scattered Clouds Scattered Clouds  
Wind Chill: 39°   Ceiling: Unl
Heat Index: 39°   Visibility: 30mi
Dew Point: 30°   Wind: 3mph
Humidity: 70%   Direction: 240°WSW
Pressure: 30.04"   Gusts: NA
Location:  39.74°N, 104.32°W
Report Text: KFTG 181752Z 24003KT 30SM FEW150 SCT200 04/M01 A3004
Loading
Personal Weather Stations






























Interactive Weather Map New forecast layout! Learn more

10-Day Weather Forecast

Advertisements
Track Severe Weather on mobile